createdAt,value
2023-05-08T00:01:47.910Z,101307.63
2023-05-08T00:04:15.670Z,101306.63
2023-05-08T00:06:43.471Z,101310.88
2023-05-08T00:09:11.342Z,101295.47
2023-05-08T00:11:39.173Z,101296.19
2023-05-08T00:14:06.771Z,101295.06
2023-05-08T00:16:34.575Z,101292.38
2023-05-08T00:19:02.247Z,101287.69
2023-05-08T00:21:31.245Z,101283.06
2023-05-08T00:23:58.762Z,101277.56
2023-05-08T00:26:26.300Z,101284.75
2023-05-08T00:28:53.928Z,101279.94
2023-05-08T00:31:21.483Z,101271.31
2023-05-08T00:33:49.025Z,101272.47
2023-05-08T00:36:17.018Z,101267.50
2023-05-08T00:38:44.606Z,101265.25
2023-05-08T00:41:12.392Z,101265.38
2023-05-08T00:43:40.346Z,101264.69
2023-05-08T00:46:10.157Z,101264.50
2023-05-08T00:48:39.915Z,101248.38
2023-05-08T00:51:09.593Z,101244.69
2023-05-08T00:53:43.315Z,101249.19
2023-05-08T00:56:13.611Z,101245.25
2023-05-08T00:58:42.413Z,101243.53
2023-05-08T01:01:11.358Z,101246.19
2023-05-08T01:03:39.914Z,101243.25
2023-05-08T01:06:08.232Z,101238.44
2023-05-08T01:08:36.189Z,101228.56
2023-05-08T01:11:17.970Z,101231.97
2023-05-08T01:14:09.945Z,101229.28
2023-05-08T01:16:49.594Z,101224.91
2023-05-08T01:19:17.164Z,101222.94
2023-05-08T01:21:56.949Z,101222.94
2023-05-08T01:24:53.855Z,101222.22
2023-05-08T01:27:27.358Z,101217.56
2023-05-08T01:30:10.168Z,101215.84
2023-05-08T01:32:46.939Z,101199.72
2023-05-08T01:35:19.862Z,101199.03
2023-05-08T01:37:50.887Z,101191.28
2023-05-08T01:40:30.613Z,101188.97
2023-05-08T01:43:34.373Z,101198.03
2023-05-08T01:46:09.940Z,101183.31
2023-05-08T01:48:47.773Z,101184.59
2023-05-08T01:51:19.865Z,101183.00
2023-05-08T01:53:55.976Z,101189.38
2023-05-08T01:56:27.337Z,101186.81
2023-05-08T01:58:56.915Z,101185.13
2023-05-08T02:01:26.386Z,101177.81
2023-05-08T02:03:56.726Z,101179.50
2023-05-08T02:06:25.494Z,101175.13
2023-05-08T02:08:54.902Z,101175.81
2023-05-08T02:11:24.828Z,101167.47
2023-05-08T02:13:54.023Z,101170.28
2023-05-08T02:16:23.352Z,101164.91
2023-05-08T02:18:54.238Z,101163.34
2023-05-08T02:21:23.635Z,101166.28
2023-05-08T02:23:52.972Z,101159.63
2023-05-08T02:26:22.611Z,101158.94
2023-05-08T02:28:52.138Z,101159.22
2023-05-08T02:31:21.025Z,101146.75
2023-05-08T02:33:50.386Z,101147.75
2023-05-08T02:36:20.400Z,101143.66
2023-05-08T02:38:52.872Z,101149.97
2023-05-08T02:41:23.172Z,101145.91
2023-05-08T02:43:52.861Z,101147.75
2023-05-08T02:46:48.115Z,101144.78
2023-05-08T02:49:22.213Z,101137.16
2023-05-08T02:51:55.849Z,101142.59
2023-05-08T02:54:51.620Z,101141.75
2023-05-08T02:57:31.164Z,101143.56
2023-05-08T03:00:22.854Z,101143.84
2023-05-08T03:03:00.002Z,101150.19
2023-05-08T03:05:33.910Z,101135.22
2023-05-08T03:08:08.357Z,101131.72
2023-05-08T03:10:38.775Z,101134.97
2023-05-08T03:13:09.458Z,101125.66
2023-05-08T03:15:50.468Z,101125.53
2023-05-08T03:18:21.694Z,101119.63
2023-05-08T03:20:53.590Z,101099.50
2023-05-08T03:23:24.858Z,101096.81
2023-05-08T03:25:53.968Z,101101.91
2023-05-08T03:28:23.995Z,101108.94
2023-05-08T03:30:56.062Z,101091.91
2023-05-08T03:33:25.617Z,101091.75
2023-05-08T03:35:55.136Z,101087.81
2023-05-08T03:38:23.357Z,101090.22
2023-05-08T03:40:51.038Z,101086.41
2023-05-08T03:43:20.598Z,101086.56
2023-05-08T03:45:48.894Z,101081.06
2023-05-08T03:48:17.662Z,101077.25
2023-05-08T03:50:45.755Z,101076.41
2023-05-08T03:53:14.488Z,101079.38
2023-05-08T03:55:42.274Z,101075.28
2023-05-08T03:58:33.113Z,101065.78
2023-05-08T04:01:19.958Z,101068.63
2023-05-08T04:04:06.347Z,101063.66
2023-05-08T04:07:01.914Z,101061.53
2023-05-08T04:10:00.366Z,101066.19
2023-05-08T04:12:28.302Z,101057.03
2023-05-08T04:15:08.055Z,101057.88
2023-05-08T04:17:50.899Z,101059.56
2023-05-08T04:20:22.407Z,101062.81
2023-05-08T04:22:53.475Z,101055.63
2023-05-08T04:25:23.126Z,101042.94
2023-05-08T04:27:51.663Z,101039.44
2023-05-08T04:30:20.365Z,101034.91
2023-05-08T04:32:49.240Z,101030.84
2023-05-08T04:35:18.011Z,101029.56
2023-05-08T04:37:47.262Z,101041.69
2023-05-08T04:40:15.743Z,101024.66
2023-05-08T04:42:47.288Z,101030.69
2023-05-08T04:45:16.984Z,101026.91
2023-05-08T04:47:44.733Z,101033.66
2023-05-08T04:50:12.505Z,101034.66
2023-05-08T04:52:40.260Z,101038.06
2023-05-08T04:55:08.799Z,101036.00
2023-05-08T04:57:39.065Z,101029.91
2023-05-08T05:00:07.414Z,101031.59
2023-05-08T05:02:39.336Z,101033.16
2023-05-08T05:05:07.720Z,101030.19
2023-05-08T05:07:35.411Z,101031.03
2023-05-08T05:10:04.313Z,101029.19
2023-05-08T05:12:33.266Z,101027.38
2023-05-08T05:15:00.945Z,101023.00
2023-05-08T05:17:33.552Z,101026.09
2023-05-08T05:20:01.412Z,101021.44
2023-05-08T05:22:29.410Z,101028.63
2023-05-08T05:24:57.113Z,101022.44
2023-05-08T05:27:25.734Z,101017.78
2023-05-08T05:29:53.549Z,101022.16
2023-05-08T05:32:21.098Z,101028.78
2023-05-08T05:34:49.024Z,101034.44
2023-05-08T05:37:16.629Z,101030.19
2023-05-08T05:39:44.252Z,101033.72
2023-05-08T05:42:12.009Z,101034.44
2023-05-08T05:44:39.757Z,101035.28
2023-05-08T05:47:10.222Z,101036.28
2023-05-08T05:49:39.920Z,101032.16
2023-05-08T05:52:07.708Z,101028.91
2023-05-08T05:54:35.784Z,101034.38
2023-05-08T05:57:03.598Z,101033.09
2023-05-08T05:59:31.656Z,101035.22
2023-05-08T06:01:59.738Z,101019.28
2023-05-08T06:04:27.976Z,101027.91
2023-05-08T06:06:55.654Z,101030.31
2023-05-08T06:09:23.222Z,101026.63
2023-05-08T06:11:52.397Z,101029.44
2023-05-08T06:14:20.444Z,101031.41
2023-05-08T06:16:48.137Z,101019.44
2023-05-08T06:19:16.460Z,101026.66
2023-05-08T06:21:44.057Z,101023.00
2023-05-08T06:24:11.825Z,101023.00
2023-05-08T06:26:39.414Z,101017.63
2023-05-08T06:29:06.928Z,101016.78
2023-05-08T06:31:34.732Z,101017.63
2023-05-08T06:34:02.285Z,101020.31
2023-05-08T06:36:29.779Z,101020.88
2023-05-08T06:38:57.730Z,101027.78
2023-05-08T06:41:25.224Z,101025.13
2023-05-08T06:43:52.733Z,101027.66
2023-05-08T06:46:21.138Z,101019.63
2023-05-08T06:48:48.660Z,101020.31
2023-05-08T06:51:16.364Z,101016.66
2023-05-08T06:53:44.051Z,101016.50
2023-05-08T06:56:11.634Z,101014.53
2023-05-08T06:58:39.164Z,101021.44
2023-05-08T07:01:07.160Z,101015.94
2023-05-08T07:03:35.057Z,101016.06
2023-05-08T07:06:02.892Z,101012.56
2023-05-08T07:08:30.473Z,101016.06
2023-05-08T07:10:57.985Z,101018.06
2023-05-08T07:13:25.868Z,101024.72
2023-05-08T07:15:53.458Z,101012.53
2023-05-08T07:18:20.995Z,101011.72
2023-05-08T07:20:48.544Z,101009.88
2023-05-08T07:23:16.842Z,101011.88
2023-05-08T07:25:44.461Z,101011.16
2023-05-08T07:28:12.067Z,101017.34
2023-05-08T07:30:39.565Z,101009.19
2023-05-08T07:33:07.138Z,101015.22
2023-05-08T07:35:34.777Z,101017.63
2023-05-08T07:38:02.472Z,101006.91
2023-05-08T07:40:30.255Z,100987.16
2023-05-08T07:42:57.931Z,100991.66
2023-05-08T07:45:26.030Z,100981.09
2023-05-08T07:47:57.933Z,100975.84
2023-05-08T07:50:26.643Z,100972.19
2023-05-08T07:52:54.243Z,100972.88
2023-05-08T07:55:21.846Z,100946.63
2023-05-08T07:57:49.446Z,100949.19
2023-05-08T08:00:17.610Z,100967.69
2023-05-08T08:02:45.902Z,100974.44
2023-05-08T08:05:14.113Z,100980.91
2023-05-08T08:07:41.939Z,101001.97
2023-05-08T08:10:09.950Z,101003.53
2023-05-08T08:12:37.534Z,100985.59
2023-05-08T08:15:06.649Z,100998.56
2023-05-08T08:17:34.332Z,101001.69
2023-05-08T08:20:02.202Z,101006.63
2023-05-08T08:22:29.882Z,101002.94
2023-05-08T08:24:57.697Z,100997.28
2023-05-08T08:27:25.357Z,101002.66
2023-05-08T08:30:01.495Z,100998.84
2023-05-08T08:32:36.168Z,101006.22
2023-05-08T08:35:03.899Z,100988.13
2023-05-08T08:37:31.680Z,100991.09
2023-05-08T08:40:00.128Z,100990.38
2023-05-08T08:42:27.992Z,100982.19
2023-05-08T08:44:58.562Z,100978.78
2023-05-08T08:47:29.913Z,100982.06
2023-05-08T08:50:03.168Z,100978.75
2023-05-08T08:53:01.346Z,100981.59
2023-05-08T08:55:31.273Z,100983.69
2023-05-08T08:58:14.528Z,100980.72
2023-05-08T09:00:43.119Z,100981.25
2023-05-08T09:03:10.940Z,100979.13
2023-05-08T09:05:38.977Z,100979.56
2023-05-08T09:08:07.395Z,100981.78
2023-05-08T09:10:36.224Z,100988.72
2023-05-08T09:13:05.147Z,100986.69
2023-05-08T09:15:33.651Z,100994.34
2023-05-08T09:18:02.836Z,100987.13
2023-05-08T09:20:30.824Z,100980.06
2023-05-08T09:23:02.789Z,100976.22
2023-05-08T09:25:43.643Z,100971.41
2023-05-08T09:28:19.454Z,100969.13
2023-05-08T09:30:57.084Z,100962.63
2023-05-08T09:33:26.904Z,100966.31
2023-05-08T09:35:55.722Z,100967.72
2023-05-08T09:38:38.090Z,100961.09
2023-05-08T09:41:16.665Z,100960.72
2023-05-08T09:43:46.468Z,100963.41
2023-05-08T09:46:23.484Z,100962.41
2023-05-08T09:48:52.895Z,100970.47
2023-05-08T09:51:21.528Z,100962.41
2023-05-08T09:53:53.563Z,100962.53
2023-05-08T09:56:38.002Z,100960.84
2023-05-08T09:59:22.669Z,100960.72
2023-05-08T10:01:51.046Z,100963.41
2023-05-08T10:04:31.011Z,100964.94
2023-05-08T10:06:58.975Z,100961.81
2023-05-08T10:09:30.793Z,100965.59
2023-05-08T10:12:07.747Z,100966.31
2023-05-08T10:14:35.406Z,100963.47
2023-05-08T10:17:09.691Z,100963.00
2023-05-08T10:19:45.204Z,100968.81
2023-05-08T10:22:15.968Z,100960.88
2023-05-08T10:24:45.664Z,100958.06
2023-05-08T10:27:32.036Z,100955.94
2023-05-08T10:30:04.513Z,100959.16
2023-05-08T10:32:56.457Z,100959.44
2023-05-08T10:35:27.605Z,100962.84
2023-05-08T10:37:57.196Z,100964.22
2023-05-08T10:40:24.896Z,100967.47
2023-05-08T10:42:52.450Z,100963.63
2023-05-08T10:45:20.660Z,100971.56
2023-05-08T10:48:01.694Z,100964.16
2023-05-08T10:50:40.791Z,100967.56
2023-05-08T10:53:46.783Z,100967.25
2023-05-08T10:56:14.408Z,100967.50
2023-05-08T10:58:41.996Z,100963.09
2023-05-08T11:01:09.593Z,100966.13
2023-05-08T11:03:46.199Z,100968.47
2023-05-08T11:06:14.995Z,100966.44
2023-05-08T11:08:53.145Z,100970.91
2023-05-08T11:11:26.982Z,100974.13
2023-05-08T11:14:12.707Z,100967.22
2023-05-08T11:16:59.855Z,100975.81
2023-05-08T11:19:28.564Z,100973.53
2023-05-08T11:22:13.982Z,100965.75
2023-05-08T11:24:54.486Z,100962.97
2023-05-08T11:27:49.520Z,100974.03
2023-05-08T11:30:35.127Z,100968.66
2023-05-08T11:33:06.344Z,100963.28
2023-05-08T11:35:49.120Z,100967.22
2023-05-08T11:38:28.584Z,100971.66
2023-05-08T11:41:04.759Z,100963.47
2023-05-08T11:43:38.307Z,100965.16
2023-05-08T11:46:10.810Z,100963.22
2023-05-08T11:48:38.376Z,100971.03
2023-05-08T11:51:06.120Z,100974.81
2023-05-08T11:53:36.496Z,100967.81
2023-05-08T11:56:04.657Z,100969.34
2023-05-08T11:58:32.210Z,100959.25
2023-05-08T12:00:59.852Z,100970.50
2023-05-08T12:03:27.559Z,100969.03
2023-05-08T12:05:59.949Z,100963.66
2023-05-08T12:08:27.673Z,100965.84
2023-05-08T12:10:58.477Z,100964.34
2023-05-08T12:13:28.222Z,100973.09
2023-05-08T12:15:57.945Z,100970.41
2023-05-08T12:18:28.714Z,100969.03
2023-05-08T12:20:58.386Z,100967.03
2023-05-08T12:23:26.982Z,100965.72
2023-05-08T12:25:55.685Z,100961.38
2023-05-08T12:28:23.300Z,100963.31
2023-05-08T12:30:51.220Z,100954.34
2023-05-08T12:33:20.253Z,100952.84
2023-05-08T12:35:47.930Z,100955.84
2023-05-08T12:38:15.549Z,100959.22
2023-05-08T12:40:50.112Z,100957.91
2023-05-08T12:43:17.644Z,100955.22
2023-05-08T12:45:45.216Z,100947.47
2023-05-08T12:48:17.302Z,100960.75
2023-05-08T12:50:46.301Z,100955.69
2023-05-08T12:53:18.640Z,100957.66
2023-05-08T12:55:54.626Z,100960.00
2023-05-08T12:58:26.485Z,100960.47
2023-05-08T13:01:03.878Z,100962.63
2023-05-08T13:03:33.115Z,100962.63
2023-05-08T13:06:01.096Z,100959.28
2023-05-08T13:08:37.710Z,100959.41
2023-05-08T13:11:06.769Z,100958.88
2023-05-08T13:13:35.955Z,100952.09
2023-05-08T13:16:05.808Z,100953.78
2023-05-08T13:18:36.211Z,100949.97
2023-05-08T13:21:03.880Z,100954.63
2023-05-08T13:23:31.672Z,100958.75
2023-05-08T13:25:59.255Z,100967.66
2023-05-08T13:28:26.774Z,100967.03
2023-05-08T13:30:54.374Z,100964.69
2023-05-08T13:33:21.906Z,100957.00
2023-05-08T13:35:49.469Z,100957.84
2023-05-08T13:38:17.005Z,100956.31
2023-05-08T13:40:44.610Z,100960.00
2023-05-08T13:43:12.118Z,100962.72
2023-05-08T13:45:39.703Z,100955.31
2023-05-08T13:48:07.357Z,100961.75
2023-05-08T13:50:34.947Z,100959.09
2023-05-08T13:53:02.562Z,100959.50
2023-05-08T13:55:30.138Z,100951.50
2023-05-08T13:57:58.847Z,100949.06
2023-05-08T14:00:28.070Z,100958.88
2023-05-08T14:02:56.082Z,100952.38
2023-05-08T14:05:23.647Z,100943.47
2023-05-08T14:07:51.200Z,100944.50
2023-05-08T14:10:18.752Z,100939.44
2023-05-08T14:12:46.874Z,100936.91
2023-05-08T14:15:14.837Z,100935.22
2023-05-08T14:17:42.862Z,100940.09
2023-05-08T14:20:12.064Z,100945.34
2023-05-08T14:22:40.322Z,100939.78
2023-05-08T14:25:08.794Z,100944.19
2023-05-08T14:27:36.520Z,100942.34
2023-05-08T14:30:04.840Z,100940.63
2023-05-08T14:32:33.968Z,100937.09
2023-05-08T14:35:01.587Z,100939.44
2023-05-08T14:37:29.212Z,100939.28
2023-05-08T14:39:57.837Z,100940.28
2023-05-08T14:42:25.394Z,100940.28
2023-05-08T14:44:53.119Z,100929.84
2023-05-08T14:47:20.702Z,100935.22
2023-05-08T14:49:48.277Z,100933.91
2023-05-08T14:52:15.988Z,100947.03
2023-05-08T14:54:43.797Z,100939.09
2023-05-08T14:57:11.566Z,100934.56
2023-05-08T15:02:28.814Z,100928.72
2023-05-08T15:04:56.546Z,100928.38
2023-05-08T15:07:24.107Z,100931.22
2023-05-08T15:09:53.181Z,100932.94
2023-05-08T15:12:20.844Z,100929.75
2023-05-08T15:14:48.892Z,100930.09
2023-05-08T15:17:16.616Z,100920.72
2023-05-08T15:19:45.772Z,100926.28
2023-05-08T15:22:14.362Z,100925.63
2023-05-08T15:24:41.922Z,100927.84
2023-05-08T15:27:10.176Z,100924.13
2023-05-08T15:29:39.840Z,100926.97
2023-05-08T15:32:07.798Z,100935.25
2023-05-08T15:34:36.642Z,100936.91
2023-05-08T15:37:04.999Z,100936.88
2023-05-08T15:39:35.753Z,100929.41
2023-05-08T15:42:04.798Z,100935.66
2023-05-08T15:44:52.724Z,100934.66
2023-05-08T15:47:20.350Z,100927.81
2023-05-08T15:49:47.870Z,100935.91
2023-05-08T15:52:19.853Z,100929.50
2023-05-08T15:54:47.601Z,100930.88
2023-05-08T15:57:15.785Z,100928.34
2023-05-08T15:59:43.336Z,100925.47
2023-05-08T16:02:10.926Z,100933.72
2023-05-08T16:04:38.581Z,100928.66
2023-05-08T16:07:06.121Z,100926.97
2023-05-08T16:09:33.716Z,100931.66
2023-05-08T16:12:01.190Z,100931.00
2023-05-08T16:14:28.828Z,100932.19
2023-05-08T16:16:56.337Z,100931.63
2023-05-08T16:19:23.991Z,100934.34
2023-05-08T16:21:51.618Z,100940.41
2023-05-08T16:24:19.478Z,100936.03
2023-05-08T16:26:47.045Z,100926.56
2023-05-08T16:29:14.699Z,100926.38
2023-05-08T16:31:42.338Z,100931.41
2023-05-08T16:34:09.958Z,100931.69
2023-05-08T16:36:37.815Z,100938.69
2023-05-08T16:39:05.958Z,100933.78
2023-05-08T16:41:33.578Z,100937.56
2023-05-08T16:44:01.262Z,100945.75
2023-05-08T16:46:30.271Z,100935.09
2023-05-08T16:48:58.326Z,100927.97
2023-05-08T16:51:26.516Z,100931.13
2023-05-08T16:53:55.460Z,100927.72
2023-05-08T16:56:24.530Z,100922.66
2023-05-08T16:58:52.179Z,100910.91
2023-05-08T17:01:19.775Z,100903.66
2023-05-08T17:03:47.340Z,100908.78
2023-05-08T17:06:14.989Z,100916.84
2023-05-08T17:08:42.543Z,100913.13
2023-05-08T17:11:10.086Z,100914.88
2023-05-08T17:13:37.618Z,100923.38
2023-05-08T17:16:05.600Z,100915.88
2023-05-08T17:18:33.173Z,100920.13
2023-05-08T17:21:01.035Z,100895.44
2023-05-08T17:23:28.648Z,100907.94
2023-05-08T17:26:00.089Z,100908.78
2023-05-08T17:28:27.775Z,100913.66
2023-05-08T17:30:55.368Z,100910.25
2023-05-08T17:33:23.053Z,100914.41
2023-05-08T17:35:50.702Z,100909.34
2023-05-08T17:38:18.299Z,100905.81
2023-05-08T17:40:47.172Z,100896.06
2023-05-08T17:43:14.766Z,100908.84
2023-05-08T17:45:43.696Z,100903.06
2023-05-08T17:48:11.586Z,100906.53
2023-05-08T17:50:42.210Z,100910.88
2023-05-08T17:53:09.836Z,100906.81
2023-05-08T17:55:37.579Z,100916.03
2023-05-08T17:58:06.894Z,100914.50
2023-05-08T18:00:34.510Z,100911.81
2023-05-08T18:03:02.259Z,100907.44
2023-05-08T18:05:30.749Z,100903.91
2023-05-08T18:07:58.497Z,100897.38
2023-05-08T18:10:26.133Z,100907.50
2023-05-08T18:12:53.763Z,100903.47
2023-05-08T18:15:23.024Z,100890.06
2023-05-08T18:17:53.680Z,100890.25
2023-05-08T18:20:21.478Z,100886.91
2023-05-08T18:22:49.225Z,100886.78
2023-05-08T18:25:16.976Z,100884.75
2023-05-08T18:27:46.148Z,100878.53
2023-05-08T18:30:14.067Z,100889.59
2023-05-08T18:32:41.920Z,100896.13
2023-05-08T18:35:09.603Z,100893.94
2023-05-08T18:37:37.139Z,100892.41
2023-05-08T18:40:05.268Z,100894.25
2023-05-08T18:42:32.887Z,100897.94
2023-05-08T18:45:00.950Z,100892.72
2023-05-08T18:47:28.973Z,100899.25
2023-05-08T18:49:57.885Z,100905.13
2023-05-08T18:52:26.059Z,100903.41
2023-05-08T18:54:53.646Z,100905.44
2023-05-08T18:57:21.284Z,100903.59
2023-05-08T18:59:48.885Z,100907.81
2023-05-08T19:02:16.427Z,100906.13
2023-05-08T19:04:43.976Z,100907.13
2023-05-08T19:07:11.601Z,100897.38
2023-05-08T19:09:39.148Z,100893.97
2023-05-08T19:12:06.729Z,100897.69
2023-05-08T19:14:34.322Z,100896.84
2023-05-08T19:17:01.963Z,100895.31
2023-05-08T19:19:30.676Z,100895.59
2023-05-08T19:21:58.178Z,100888.53
2023-05-08T19:24:29.892Z,100884.97
2023-05-08T19:26:59.114Z,100892.38
2023-05-08T19:29:26.829Z,100893.00
2023-05-08T19:31:56.597Z,100890.47
2023-05-08T19:34:24.371Z,100893.31
2023-05-08T19:36:51.955Z,100893.50
2023-05-08T19:39:19.654Z,100897.16
2023-05-08T19:41:47.188Z,100909.38
2023-05-08T19:44:14.696Z,100911.72
2023-05-08T19:46:42.676Z,100912.88
2023-05-08T19:49:10.713Z,100923.94
2023-05-08T19:51:38.225Z,100921.56
2023-05-08T19:54:06.256Z,100933.34
2023-05-08T19:56:33.847Z,100934.47
2023-05-08T19:59:01.502Z,100933.47
2023-05-08T20:01:29.099Z,100926.28
2023-05-08T20:03:59.734Z,100925.41
2023-05-08T20:06:29.756Z,100931.13
2023-05-08T20:08:57.360Z,100928.88
2023-05-08T20:11:24.896Z,100928.16
2023-05-08T20:13:52.559Z,100925.34
2023-05-08T20:16:20.102Z,100936.25
2023-05-08T20:18:48.694Z,100938.56
2023-05-08T20:21:16.323Z,100930.09
2023-05-08T20:23:43.929Z,100937.31
2023-05-08T20:26:12.229Z,100936.31
2023-05-08T20:28:39.869Z,100939.00
2023-05-08T20:31:07.469Z,100942.72
2023-05-08T20:33:35.230Z,100938.16
2023-05-08T20:36:03.530Z,100935.47
2023-05-08T20:38:31.562Z,100933.63
2023-05-08T20:41:01.054Z,100953.47
2023-05-08T20:43:29.028Z,100963.84
2023-05-08T20:45:56.686Z,100970.50
2023-05-08T20:48:24.370Z,100978.63
2023-05-08T20:50:52.171Z,100978.00
2023-05-08T20:53:20.060Z,100981.19
2023-05-08T20:55:47.592Z,100978.13
2023-05-08T20:58:15.504Z,100986.38
2023-05-08T21:00:43.040Z,100995.75
2023-05-08T21:03:10.825Z,100998.47
2023-05-08T21:05:38.382Z,101005.25
2023-05-08T21:08:06.353Z,101006.44
2023-05-08T21:10:34.139Z,101004.16
2023-05-08T21:13:01.908Z,101010.25
2023-05-08T21:15:29.655Z,100998.41
2023-05-08T21:17:57.470Z,100997.28
2023-05-08T21:20:25.114Z,100992.19
2023-05-08T21:22:52.651Z,100984.44
2023-05-08T21:25:21.362Z,100980.06
2023-05-08T21:27:49.127Z,100982.06
2023-05-08T21:30:17.124Z,100969.34
2023-05-08T21:32:45.590Z,100960.47
2023-05-08T21:35:13.871Z,100962.44
2023-05-08T21:37:41.606Z,100950.19
2023-05-08T21:40:09.897Z,100945.38
2023-05-08T21:42:38.974Z,100928.72
2023-05-08T21:45:07.309Z,100934.09
2023-05-08T21:47:34.927Z,100922.56
2023-05-08T21:50:02.639Z,100911.66
2023-05-08T21:52:30.190Z,100906.31
2023-05-08T21:54:57.767Z,100891.22
2023-05-08T21:57:25.423Z,100887.53
2023-05-08T21:59:53.694Z,100881.06
2023-05-08T22:02:21.294Z,100869.34
2023-05-08T22:04:49.310Z,100863.13
2023-05-08T22:07:16.831Z,100856.09
2023-05-08T22:09:44.411Z,100845.50
2023-05-08T22:12:11.995Z,100858.59
2023-05-08T22:14:39.686Z,100855.38
2023-05-08T22:17:07.241Z,100865.78
2023-05-08T22:19:34.913Z,100868.19
2023-05-08T22:22:02.490Z,100850.28
2023-05-08T22:24:30.067Z,100852.84
2023-05-08T22:26:57.669Z,100841.94
2023-05-08T22:29:25.401Z,100848.72
2023-05-08T22:31:53.102Z,100853.94
2023-05-08T22:34:20.913Z,100849.56
2023-05-08T22:36:48.537Z,100858.59
2023-05-08T22:39:16.250Z,100865.25
2023-05-08T22:41:44.103Z,100871.59
2023-05-08T22:44:11.818Z,100871.72
2023-05-08T22:46:39.639Z,100868.19
2023-05-08T22:49:07.513Z,100879.91
2023-05-08T22:51:36.172Z,100874.97
2023-05-08T22:54:03.987Z,100874.56
2023-05-08T22:56:31.640Z,100875.69
2023-05-08T22:58:59.208Z,100883.84
2023-05-08T23:01:26.903Z,100878.50
2023-05-08T23:03:54.596Z,100868.22
2023-05-08T23:06:22.383Z,100866.25
2023-05-08T23:08:49.975Z,100861.72
2023-05-08T23:11:17.583Z,100869.91
2023-05-08T23:13:45.151Z,100862.13
2023-05-08T23:16:12.813Z,100862.13
2023-05-08T23:18:40.593Z,100862.28
2023-05-08T23:21:08.766Z,100860.44
2023-05-08T23:23:36.906Z,100862.28
2023-05-08T23:26:07.200Z,100859.91
2023-05-08T23:28:35.635Z,100862.97
2023-05-08T23:31:03.967Z,100857.78
2023-05-08T23:33:31.783Z,100854.53
2023-05-08T23:35:59.558Z,100851.97
2023-05-08T23:38:27.327Z,100856.78
2023-05-08T23:40:54.865Z,100862.41
2023-05-08T23:43:22.441Z,100863.97
2023-05-08T23:45:49.925Z,100866.09
2023-05-08T23:48:17.601Z,100867.38
2023-05-08T23:50:45.213Z,100864.13
2023-05-08T23:53:13.386Z,100860.88
2023-05-08T23:55:41.437Z,100849.44
2023-05-08T23:58:09.183Z,100852.25
